sensor_id;sensor_type;location;lat;lon;timestamp;temperature;humidity
10644;DHT22;5370;50.132;8.626;2022-08-27T00:01:08;23.00;61.90
10644;DHT22;5370;50.132;8.626;2022-08-27T00:03:34;23.00;62.00
10644;DHT22;5370;50.132;8.626;2022-08-27T00:06:00;22.90;61.80
10644;DHT22;5370;50.132;8.626;2022-08-27T00:08:26;22.90;62.20
10644;DHT22;5370;50.132;8.626;2022-08-27T00:10:51;22.90;62.00
10644;DHT22;5370;50.132;8.626;2022-08-27T00:13:17;22.90;62.30
10644;DHT22;5370;50.132;8.626;2022-08-27T00:15:44;22.90;62.30
10644;DHT22;5370;50.132;8.626;2022-08-27T00:18:10;22.90;62.30
10644;DHT22;5370;50.132;8.626;2022-08-27T00:20:35;22.90;62.50
10644;DHT22;5370;50.132;8.626;2022-08-27T00:23:01;22.80;62.60
10644;DHT22;5370;50.132;8.626;2022-08-27T00:25:27;22.80;62.70
10644;DHT22;5370;50.132;8.626;2022-08-27T00:27:53;22.80;62.70
10644;DHT22;5370;50.132;8.626;2022-08-27T00:30:20;22.70;62.70
10644;DHT22;5370;50.132;8.626;2022-08-27T00:32:46;22.70;62.80
10644;DHT22;5370;50.132;8.626;2022-08-27T00:35:12;22.70;62.90
10644;DHT22;5370;50.132;8.626;2022-08-27T00:37:39;22.70;63.00
10644;DHT22;5370;50.132;8.626;2022-08-27T00:40:07;22.60;63.00
10644;DHT22;5370;50.132;8.626;2022-08-27T00:42:33;22.60;63.20
10644;DHT22;5370;50.132;8.626;2022-08-27T00:44:59;22.60;63.20
10644;DHT22;5370;50.132;8.626;2022-08-27T00:47:27;22.60;63.30
10644;DHT22;5370;50.132;8.626;2022-08-27T00:49:58;22.60;63.40
10644;DHT22;5370;50.132;8.626;2022-08-27T00:52:34;22.60;63.40
10644;DHT22;5370;50.132;8.626;2022-08-27T00:55:30;22.60;63.50
10644;DHT22;5370;50.132;8.626;2022-08-27T00:58:18;22.70;63.60
10644;DHT22;5370;50.132;8.626;2022-08-27T01:00:46;22.70;63.50
10644;DHT22;5370;50.132;8.626;2022-08-27T01:03:12;22.70;63.50
10644;DHT22;5370;50.132;8.626;2022-08-27T01:05:38;22.70;63.40
10644;DHT22;5370;50.132;8.626;2022-08-27T01:08:09;22.70;63.40
10644;DHT22;5370;50.132;8.626;2022-08-27T01:10:37;22.70;63.30
10644;DHT22;5370;50.132;8.626;2022-08-27T01:13:06;22.70;63.20
10644;DHT22;5370;50.132;8.626;2022-08-27T01:15:32;22.80;63.30
10644;DHT22;5370;50.132;8.626;2022-08-27T01:17:58;22.80;63.30
10644;DHT22;5370;50.132;8.626;2022-08-27T01:20:31;22.80;63.30
10644;DHT22;5370;50.132;8.626;2022-08-27T01:25:49;22.80;63.30
10644;DHT22;5370;50.132;8.626;2022-08-27T01:28:16;22.80;63.20
10644;DHT22;5370;50.132;8.626;2022-08-27T01:30:42;22.80;63.30
10644;DHT22;5370;50.132;8.626;2022-08-27T01:33:15;22.80;63.30
10644;DHT22;5370;50.132;8.626;2022-08-27T01:35:46;22.70;63.20
10644;DHT22;5370;50.132;8.626;2022-08-27T01:38:12;22.70;63.20
10644;DHT22;5370;50.132;8.626;2022-08-27T01:40:37;22.70;63.20
10644;DHT22;5370;50.132;8.626;2022-08-27T01:43:03;22.70;63.20
10644;DHT22;5370;50.132;8.626;2022-08-27T01:45:33;22.70;63.30
10644;DHT22;5370;50.132;8.626;2022-08-27T01:47:59;22.70;63.30
10644;DHT22;5370;50.132;8.626;2022-08-27T01:50:29;22.70;63.30
10644;DHT22;5370;50.132;8.626;2022-08-27T01:52:59;22.70;63.40
10644;DHT22;5370;50.132;8.626;2022-08-27T01:55:26;22.70;63.20
10644;DHT22;5370;50.132;8.626;2022-08-27T01:57:52;22.70;63.20
10644;DHT22;5370;50.132;8.626;2022-08-27T02:00:27;22.70;63.30
10644;DHT22;5370;50.132;8.626;2022-08-27T02:02:54;22.70;63.30
10644;DHT22;5370;50.132;8.626;2022-08-27T02:05:20;22.70;63.30
10644;DHT22;5370;50.132;8.626;2022-08-27T02:07:47;22.70;63.30
10644;DHT22;5370;50.132;8.626;2022-08-27T02:10:16;22.70;63.30
10644;DHT22;5370;50.132;8.626;2022-08-27T02:12:42;22.60;63.30
10644;DHT22;5370;50.132;8.626;2022-08-27T02:15:08;22.60;63.50
10644;DHT22;5370;50.132;8.626;2022-08-27T02:17:34;22.50;63.40
10644;DHT22;5370;50.132;8.626;2022-08-27T02:19:59;22.50;63.70
10644;DHT22;5370;50.132;8.626;2022-08-27T02:22:26;22.40;63.70
10644;DHT22;5370;50.132;8.626;2022-08-27T02:24:52;22.40;63.90
10644;DHT22;5370;50.132;8.626;2022-08-27T02:27:18;22.40;64.10
10644;DHT22;5370;50.132;8.626;2022-08-27T02:29:44;22.40;64.20
10644;DHT22;5370;50.132;8.626;2022-08-27T02:32:12;22.30;64.20
10644;DHT22;5370;50.132;8.626;2022-08-27T02:34:38;22.30;64.30
10644;DHT22;5370;50.132;8.626;2022-08-27T02:37:03;22.30;64.40
10644;DHT22;5370;50.132;8.626;2022-08-27T02:39:29;22.30;64.50
10644;DHT22;5370;50.132;8.626;2022-08-27T02:41:54;22.30;64.60
10644;DHT22;5370;50.132;8.626;2022-08-27T02:44:20;22.30;64.50
10644;DHT22;5370;50.132;8.626;2022-08-27T02:46:45;22.30;64.60
10644;DHT22;5370;50.132;8.626;2022-08-27T02:49:11;22.30;64.60
10644;DHT22;5370;50.132;8.626;2022-08-27T02:51:37;22.30;64.50
10644;DHT22;5370;50.132;8.626;2022-08-27T02:54:03;22.40;64.50
10644;DHT22;5370;50.132;8.626;2022-08-27T02:56:28;22.40;65.10
10644;DHT22;5370;50.132;8.626;2022-08-27T02:58:54;22.40;64.40
10644;DHT22;5370;50.132;8.626;2022-08-27T03:01:20;22.40;64.40
10644;DHT22;5370;50.132;8.626;2022-08-27T03:03:45;22.40;64.40
10644;DHT22;5370;50.132;8.626;2022-08-27T03:06:11;22.40;64.40
10644;DHT22;5370;50.132;8.626;2022-08-27T03:08:37;22.40;64.40
10644;DHT22;5370;50.132;8.626;2022-08-27T03:11:03;22.40;64.40
10644;DHT22;5370;50.132;8.626;2022-08-27T03:13:28;22.40;64.30
10644;DHT22;5370;50.132;8.626;2022-08-27T03:15:54;22.40;64.40
10644;DHT22;5370;50.132;8.626;2022-08-27T03:18:20;22.40;64.40
10644;DHT22;5370;50.132;8.626;2022-08-27T03:20:50;22.40;64.40
10644;DHT22;5370;50.132;8.626;2022-08-27T03:23:18;22.40;64.40
10644;DHT22;5370;50.132;8.626;2022-08-27T03:25:49;22.40;64.30
10644;DHT22;5370;50.132;8.626;2022-08-27T03:28:20;22.40;64.40
10644;DHT22;5370;50.132;8.626;2022-08-27T03:30:53;22.40;64.40
10644;DHT22;5370;50.132;8.626;2022-08-27T03:33:19;22.40;64.40
10644;DHT22;5370;50.132;8.626;2022-08-27T03:35:46;22.40;64.40
10644;DHT22;5370;50.132;8.626;2022-08-27T03:38:13;22.40;64.50
10644;DHT22;5370;50.132;8.626;2022-08-27T03:40:38;22.30;64.40
10644;DHT22;5370;50.132;8.626;2022-08-27T03:43:04;22.30;64.40
10644;DHT22;5370;50.132;8.626;2022-08-27T03:45:30;22.30;64.50
10644;DHT22;5370;50.132;8.626;2022-08-27T03:47:55;22.20;64.50
10644;DHT22;5370;50.132;8.626;2022-08-27T03:50:21;22.20;64.70
10644;DHT22;5370;50.132;8.626;2022-08-27T03:52:47;22.10;64.90
10644;DHT22;5370;50.132;8.626;2022-08-27T03:55:13;22.10;65.20
10644;DHT22;5370;50.132;8.626;2022-08-27T03:57:38;22.00;65.30
10644;DHT22;5370;50.132;8.626;2022-08-27T04:00:07;22.00;65.70
10644;DHT22;5370;50.132;8.626;2022-08-27T04:02:37;21.90;65.70
10644;DHT22;5370;50.132;8.626;2022-08-27T04:05:04;21.90;65.80
10644;DHT22;5370;50.132;8.626;2022-08-27T04:07:30;21.90;65.80
10644;DHT22;5370;50.132;8.626;2022-08-27T04:09:56;21.90;65.90
10644;DHT22;5370;50.132;8.626;2022-08-27T04:12:23;21.90;65.90
10644;DHT22;5370;50.132;8.626;2022-08-27T04:14:49;22.00;66.00
10644;DHT22;5370;50.132;8.626;2022-08-27T04:17:14;22.00;65.90
10644;DHT22;5370;50.132;8.626;2022-08-27T04:19:40;22.00;65.90
10644;DHT22;5370;50.132;8.626;2022-08-27T04:22:06;22.00;65.90
10644;DHT22;5370;50.132;8.626;2022-08-27T04:24:34;22.00;65.80
10644;DHT22;5370;50.132;8.626;2022-08-27T04:27:00;22.10;65.90
10644;DHT22;5370;50.132;8.626;2022-08-27T04:29:26;22.00;65.70
10644;DHT22;5370;50.132;8.626;2022-08-27T04:31:52;22.00;65.70
10644;DHT22;5370;50.132;8.626;2022-08-27T04:34:18;22.00;65.80
10644;DHT22;5370;50.132;8.626;2022-08-27T04:36:44;22.00;65.70
10644;DHT22;5370;50.132;8.626;2022-08-27T04:39:12;22.00;65.70
10644;DHT22;5370;50.132;8.626;2022-08-27T04:41:38;22.00;65.80
10644;DHT22;5370;50.132;8.626;2022-08-27T04:44:06;21.90;65.80
10644;DHT22;5370;50.132;8.626;2022-08-27T04:46:36;21.90;65.90
10644;DHT22;5370;50.132;8.626;2022-08-27T04:49:05;21.90;66.00
10644;DHT22;5370;50.132;8.626;2022-08-27T04:51:32;21.90;66.90
10644;DHT22;5370;50.132;8.626;2022-08-27T04:53:58;21.90;66.30
10644;DHT22;5370;50.132;8.626;2022-08-27T04:56:26;21.90;66.30
10644;DHT22;5370;50.132;8.626;2022-08-27T04:58:51;21.80;66.40
10644;DHT22;5370;50.132;8.626;2022-08-27T05:01:22;21.80;66.40
10644;DHT22;5370;50.132;8.626;2022-08-27T05:03:48;21.80;66.60
10644;DHT22;5370;50.132;8.626;2022-08-27T05:06:14;21.80;66.60
10644;DHT22;5370;50.132;8.626;2022-08-27T05:08:40;21.80;67.00
10644;DHT22;5370;50.132;8.626;2022-08-27T05:11:09;21.80;67.10
10644;DHT22;5370;50.132;8.626;2022-08-27T05:13:35;21.70;67.00
10644;DHT22;5370;50.132;8.626;2022-08-27T05:16:06;21.70;67.10
10644;DHT22;5370;50.132;8.626;2022-08-27T05:18:32;21.80;67.30
10644;DHT22;5370;50.132;8.626;2022-08-27T05:20:58;21.70;67.20
10644;DHT22;5370;50.132;8.626;2022-08-27T05:23:24;21.70;67.20
10644;DHT22;5370;50.132;8.626;2022-08-27T05:25:53;21.80;67.40
10644;DHT22;5370;50.132;8.626;2022-08-27T05:28:21;21.80;67.30
10644;DHT22;5370;50.132;8.626;2022-08-27T05:30:49;21.80;67.20
10644;DHT22;5370;50.132;8.626;2022-08-27T05:33:17;21.80;67.20
10644;DHT22;5370;50.132;8.626;2022-08-27T05:35:47;21.80;67.20
10644;DHT22;5370;50.132;8.626;2022-08-27T05:38:13;21.80;67.10
10644;DHT22;5370;50.132;8.626;2022-08-27T05:40:39;21.90;67.50
10644;DHT22;5370;50.132;8.626;2022-08-27T05:43:06;21.90;67.10
10644;DHT22;5370;50.132;8.626;2022-08-27T05:45:41;22.00;67.00
10644;DHT22;5370;50.132;8.626;2022-08-27T05:48:08;21.90;67.60
10644;DHT22;5370;50.132;8.626;2022-08-27T05:50:39;21.90;66.90
10644;DHT22;5370;50.132;8.626;2022-08-27T05:53:05;21.90;66.90
10644;DHT22;5370;50.132;8.626;2022-08-27T05:55:42;21.90;67.00
10644;DHT22;5370;50.132;8.626;2022-08-27T05:58:10;21.90;67.20
10644;DHT22;5370;50.132;8.626;2022-08-27T06:00:57;21.90;67.80
10644;DHT22;5370;50.132;8.626;2022-08-27T06:03:33;22.00;67.20
10644;DHT22;5370;50.132;8.626;2022-08-27T06:06:00;21.90;67.10
10644;DHT22;5370;50.132;8.626;2022-08-27T06:08:26;22.00;67.20
10644;DHT22;5370;50.132;8.626;2022-08-27T06:10:52;22.10;67.10
10644;DHT22;5370;50.132;8.626;2022-08-27T06:13:18;22.10;66.90
10644;DHT22;5370;50.132;8.626;2022-08-27T06:15:43;22.30;66.80
10644;DHT22;5370;50.132;8.626;2022-08-27T06:18:09;22.40;66.80
10644;DHT22;5370;50.132;8.626;2022-08-27T06:20:34;22.50;66.10
10644;DHT22;5370;50.132;8.626;2022-08-27T06:23:00;22.50;66.50
10644;DHT22;5370;50.132;8.626;2022-08-27T06:25:26;22.60;65.60
10644;DHT22;5370;50.132;8.626;2022-08-27T06:27:51;22.70;65.60
10644;DHT22;5370;50.132;8.626;2022-08-27T06:30:17;22.80;65.40
10644;DHT22;5370;50.132;8.626;2022-08-27T06:32:43;22.90;65.00
10644;DHT22;5370;50.132;8.626;2022-08-27T06:35:08;23.00;64.70
10644;DHT22;5370;50.132;8.626;2022-08-27T06:37:34;23.10;64.40
10644;DHT22;5370;50.132;8.626;2022-08-27T06:40:00;23.10;63.70
10644;DHT22;5370;50.132;8.626;2022-08-27T06:42:26;23.10;63.50
10644;DHT22;5370;50.132;8.626;2022-08-27T06:44:51;23.10;63.40
10644;DHT22;5370;50.132;8.626;2022-08-27T06:47:18;23.10;63.30
10644;DHT22;5370;50.132;8.626;2022-08-27T06:49:44;23.10;63.20
10644;DHT22;5370;50.132;8.626;2022-08-27T06:52:09;23.10;63.10
10644;DHT22;5370;50.132;8.626;2022-08-27T06:54:35;23.10;63.20
10644;DHT22;5370;50.132;8.626;2022-08-27T06:57:00;23.00;63.10
10644;DHT22;5370;50.132;8.626;2022-08-27T06:59:26;23.10;63.20
10644;DHT22;5370;50.132;8.626;2022-08-27T07:01:52;23.00;63.00
10644;DHT22;5370;50.132;8.626;2022-08-27T07:04:22;23.00;63.10
10644;DHT22;5370;50.132;8.626;2022-08-27T07:06:48;23.00;63.20
10644;DHT22;5370;50.132;8.626;2022-08-27T07:09:14;23.00;63.20
10644;DHT22;5370;50.132;8.626;2022-08-27T07:11:41;23.00;63.20
10644;DHT22;5370;50.132;8.626;2022-08-27T07:14:07;23.10;63.20
10644;DHT22;5370;50.132;8.626;2022-08-27T07:16:34;23.10;63.00
10644;DHT22;5370;50.132;8.626;2022-08-27T07:19:01;23.20;63.10
10644;DHT22;5370;50.132;8.626;2022-08-27T07:21:28;23.30;62.80
10644;DHT22;5370;50.132;8.626;2022-08-27T07:23:54;23.40;62.50
10644;DHT22;5370;50.132;8.626;2022-08-27T07:26:23;23.40;62.10
10644;DHT22;5370;50.132;8.626;2022-08-27T07:28:49;23.60;61.80
10644;DHT22;5370;50.132;8.626;2022-08-27T07:31:17;23.70;61.20
10644;DHT22;5370;50.132;8.626;2022-08-27T07:33:43;23.80;60.70
10644;DHT22;5370;50.132;8.626;2022-08-27T07:36:10;23.90;60.50
10644;DHT22;5370;50.132;8.626;2022-08-27T07:38:36;24.30;60.50
10644;DHT22;5370;50.132;8.626;2022-08-27T07:41:10;24.80;59.40
10644;DHT22;5370;50.132;8.626;2022-08-27T07:43:36;25.20;58.20
10644;DHT22;5370;50.132;8.626;2022-08-27T07:46:21;25.50;57.00
10644;DHT22;5370;50.132;8.626;2022-08-27T07:48:48;26.00;56.70
10644;DHT22;5370;50.132;8.626;2022-08-27T07:51:17;26.70;55.30
10644;DHT22;5370;50.132;8.626;2022-08-27T07:53:44;27.30;53.30
10644;DHT22;5370;50.132;8.626;2022-08-27T07:56:10;27.40;52.00
10644;DHT22;5370;50.132;8.626;2022-08-27T07:58:36;27.50;51.60
10644;DHT22;5370;50.132;8.626;2022-08-27T08:01:02;27.60;51.40
10644;DHT22;5370;50.132;8.626;2022-08-27T08:03:28;27.40;50.60
10644;DHT22;5370;50.132;8.626;2022-08-27T08:05:54;27.10;50.80
10644;DHT22;5370;50.132;8.626;2022-08-27T08:08:22;26.70;51.40
10644;DHT22;5370;50.132;8.626;2022-08-27T08:10:49;26.70;52.10
10644;DHT22;5370;50.132;8.626;2022-08-27T08:13:18;27.00;52.00
10644;DHT22;5370;50.132;8.626;2022-08-27T08:15:44;28.00;50.70
10644;DHT22;5370;50.132;8.626;2022-08-27T08:18:11;28.90;48.00
10644;DHT22;5370;50.132;8.626;2022-08-27T08:20:36;29.50;46.70
10644;DHT22;5370;50.132;8.626;2022-08-27T08:23:02;30.40;45.60
10644;DHT22;5370;50.132;8.626;2022-08-27T08:25:28;31.30;44.50
10644;DHT22;5370;50.132;8.626;2022-08-27T08:27:54;32.20;42.70
10644;DHT22;5370;50.132;8.626;2022-08-27T08:30:20;32.70;40.60
10644;DHT22;5370;50.132;8.626;2022-08-27T08:32:46;32.80;40.40
10644;DHT22;5370;50.132;8.626;2022-08-27T08:35:12;32.80;39.50
10644;DHT22;5370;50.132;8.626;2022-08-27T08:37:38;32.50;39.40
10644;DHT22;5370;50.132;8.626;2022-08-27T08:40:06;32.20;39.50
10644;DHT22;5370;50.132;8.626;2022-08-27T08:42:40;31.80;40.10
10644;DHT22;5370;50.132;8.626;2022-08-27T08:45:09;31.70;40.40
10644;DHT22;5370;50.132;8.626;2022-08-27T08:47:49;30.80;40.80
10644;DHT22;5370;50.132;8.626;2022-08-27T08:50:36;30.00;42.20
10644;DHT22;5370;50.132;8.626;2022-08-27T08:53:20;29.40;43.40
10644;DHT22;5370;50.132;8.626;2022-08-27T08:55:55;28.80;44.50
10644;DHT22;5370;50.132;8.626;2022-08-27T09:01:05;28.30;45.80
10644;DHT22;5370;50.132;8.626;2022-08-27T09:03:34;28.10;46.10
10644;DHT22;5370;50.132;8.626;2022-08-27T09:06:17;27.90;46.40
10644;DHT22;5370;50.132;8.626;2022-08-27T09:08:43;27.90;46.80
10644;DHT22;5370;50.132;8.626;2022-08-27T09:11:16;27.90;46.70
10644;DHT22;5370;50.132;8.626;2022-08-27T09:13:51;27.80;47.00
10644;DHT22;5370;50.132;8.626;2022-08-27T09:16:18;27.60;47.40
10644;DHT22;5370;50.132;8.626;2022-08-27T09:18:44;27.40;47.70
10644;DHT22;5370;50.132;8.626;2022-08-27T09:21:20;27.30;47.90
10644;DHT22;5370;50.132;8.626;2022-08-27T09:26:26;27.10;48.50
10644;DHT22;5370;50.132;8.626;2022-08-27T09:29:03;27.10;48.60
10644;DHT22;5370;50.132;8.626;2022-08-27T09:34:17;27.10;48.90
10644;DHT22;5370;50.132;8.626;2022-08-27T09:36:53;27.00;49.00
10644;DHT22;5370;50.132;8.626;2022-08-27T09:39:21;26.90;49.30
10644;DHT22;5370;50.132;8.626;2022-08-27T09:41:49;26.90;49.40
10644;DHT22;5370;50.132;8.626;2022-08-27T09:44:17;26.60;49.60
10644;DHT22;5370;50.132;8.626;2022-08-27T09:47:00;26.40;49.90
10644;DHT22;5370;50.132;8.626;2022-08-27T09:49:28;26.60;50.00
10644;DHT22;5370;50.132;8.626;2022-08-27T09:51:54;26.70;49.90
10644;DHT22;5370;50.132;8.626;2022-08-27T09:54:37;26.70;49.70
10644;DHT22;5370;50.132;8.626;2022-08-27T09:57:05;26.60;50.00
10644;DHT22;5370;50.132;8.626;2022-08-27T09:59:52;26.60;50.10
10644;DHT22;5370;50.132;8.626;2022-08-27T10:02:23;26.70;50.20
10644;DHT22;5370;50.132;8.626;2022-08-27T10:04:52;26.60;50.30
10644;DHT22;5370;50.132;8.626;2022-08-27T10:15:06;26.70;50.30
10644;DHT22;5370;50.132;8.626;2022-08-27T10:17:41;26.70;50.20
10644;DHT22;5370;50.132;8.626;2022-08-27T10:39:45;27.50;49.00
10644;DHT22;5370;50.132;8.626;2022-08-27T10:42:31;27.80;48.50
10644;DHT22;5370;50.132;8.626;2022-08-27T10:48:13;28.30;47.40
10644;DHT22;5370;50.132;8.626;2022-08-27T10:50:54;28.30;46.90
10644;DHT22;5370;50.132;8.626;2022-08-27T10:54:26;28.30;46.90
10644;DHT22;5370;50.132;8.626;2022-08-27T10:56:47;28.40;46.70
10644;DHT22;5370;50.132;8.626;2022-08-27T11:04:49;28.00;46.70
10644;DHT22;5370;50.132;8.626;2022-08-27T11:07:21;27.90;46.90
10644;DHT22;5370;50.132;8.626;2022-08-27T11:09:53;27.90;47.10
10644;DHT22;5370;50.132;8.626;2022-08-27T11:12:26;27.80;47.10
10644;DHT22;5370;50.132;8.626;2022-08-27T11:14:54;27.70;47.20
10644;DHT22;5370;50.132;8.626;2022-08-27T11:17:33;27.40;47.60
10644;DHT22;5370;50.132;8.626;2022-08-27T11:22:56;27.20;48.20
10644;DHT22;5370;50.132;8.626;2022-08-27T11:25:44;27.20;48.20
10644;DHT22;5370;50.132;8.626;2022-08-27T11:28:17;27.20;48.30
10644;DHT22;5370;50.132;8.626;2022-08-27T11:33:37;27.20;48.40
10644;DHT22;5370;50.132;8.626;2022-08-27T11:36:30;27.20;48.40
10644;DHT22;5370;50.132;8.626;2022-08-27T11:39:28;27.20;48.50
10644;DHT22;5370;50.132;8.626;2022-08-27T11:45:01;26.90;48.70
10644;DHT22;5370;50.132;8.626;2022-08-27T11:47:27;26.90;48.90
10644;DHT22;5370;50.132;8.626;2022-08-27T11:49:56;26.90;49.10
10644;DHT22;5370;50.132;8.626;2022-08-27T11:52:32;26.90;49.10
10644;DHT22;5370;50.132;8.626;2022-08-27T11:57:49;27.00;48.90
10644;DHT22;5370;50.132;8.626;2022-08-27T12:00:20;27.00;48.90
10644;DHT22;5370;50.132;8.626;2022-08-27T12:05:43;27.10;48.80
10644;DHT22;5370;50.132;8.626;2022-08-27T12:08:15;27.10;48.80
10644;DHT22;5370;50.132;8.626;2022-08-27T12:13:23;27.10;48.90
10644;DHT22;5370;50.132;8.626;2022-08-27T12:18:52;27.20;48.70
10644;DHT22;5370;50.132;8.626;2022-08-27T12:21:44;27.10;48.60
10644;DHT22;5370;50.132;8.626;2022-08-27T12:24:15;27.00;48.70
10644;DHT22;5370;50.132;8.626;2022-08-27T12:30:02;27.00;49.10
10644;DHT22;5370;50.132;8.626;2022-08-27T12:32:38;27.00;49.10
10644;DHT22;5370;50.132;8.626;2022-08-27T12:35:20;27.00;49.10
10644;DHT22;5370;50.132;8.626;2022-08-27T12:37:51;27.00;49.00
10644;DHT22;5370;50.132;8.626;2022-08-27T12:40:39;27.00;49.00
10644;DHT22;5370;50.132;8.626;2022-08-27T12:45:30;26.90;48.90
10644;DHT22;5370;50.132;8.626;2022-08-27T12:47:56;27.00;49.10
10644;DHT22;5370;50.132;8.626;2022-08-27T12:50:27;27.10;49.10
10644;DHT22;5370;50.132;8.626;2022-08-27T12:53:07;27.30;48.90
10644;DHT22;5370;50.132;8.626;2022-08-27T13:03:55;28.00;47.30
10644;DHT22;5370;50.132;8.626;2022-08-27T13:08:52;28.40;46.60
10644;DHT22;5370;50.132;8.626;2022-08-27T13:11:25;28.60;46.20
10644;DHT22;5370;50.132;8.626;2022-08-27T13:14:02;28.90;45.70
10644;DHT22;5370;50.132;8.626;2022-08-27T13:16:28;29.10;45.20
10644;DHT22;5370;50.132;8.626;2022-08-27T13:18:54;29.20;44.90
10644;DHT22;5370;50.132;8.626;2022-08-27T13:21:23;29.10;44.50
10644;DHT22;5370;50.132;8.626;2022-08-27T13:23:57;29.00;44.20
10644;DHT22;5370;50.132;8.626;2022-08-27T13:26:26;29.10;44.20
10644;DHT22;5370;50.132;8.626;2022-08-27T13:28:54;29.20;44.30
10644;DHT22;5370;50.132;8.626;2022-08-27T13:31:21;29.10;44.30
10644;DHT22;5370;50.132;8.626;2022-08-27T13:33:48;29.10;44.40
10644;DHT22;5370;50.132;8.626;2022-08-27T13:36:25;29.20;44.30
10644;DHT22;5370;50.132;8.626;2022-08-27T13:38:51;29.10;44.30
10644;DHT22;5370;50.132;8.626;2022-08-27T13:41:42;28.90;44.30
10644;DHT22;5370;50.132;8.626;2022-08-27T13:44:14;28.90;44.30
10644;DHT22;5370;50.132;8.626;2022-08-27T13:46:48;28.80;44.40
10644;DHT22;5370;50.132;8.626;2022-08-27T13:49:27;28.70;44.50
10644;DHT22;5370;50.132;8.626;2022-08-27T13:52:03;28.60;44.80
10644;DHT22;5370;50.132;8.626;2022-08-27T13:54:31;28.70;45.00
10644;DHT22;5370;50.132;8.626;2022-08-27T13:57:04;28.60;45.00
10644;DHT22;5370;50.132;8.626;2022-08-27T13:59:35;28.60;45.10
10644;DHT22;5370;50.132;8.626;2022-08-27T14:07:45;28.40;45.10
10644;DHT22;5370;50.132;8.626;2022-08-27T14:12:45;28.10;45.40
10644;DHT22;5370;50.132;8.626;2022-08-27T14:17:37;27.80;46.00
10644;DHT22;5370;50.132;8.626;2022-08-27T14:20:04;27.60;46.10
10644;DHT22;5370;50.132;8.626;2022-08-27T14:22:31;27.50;46.50
10644;DHT22;5370;50.132;8.626;2022-08-27T14:24:58;27.30;46.80
10644;DHT22;5370;50.132;8.626;2022-08-27T14:27:24;27.10;47.10
10644;DHT22;5370;50.132;8.626;2022-08-27T14:29:51;27.00;47.40
10644;DHT22;5370;50.132;8.626;2022-08-27T14:32:16;26.90;47.80
10644;DHT22;5370;50.132;8.626;2022-08-27T14:34:43;26.80;47.90
10644;DHT22;5370;50.132;8.626;2022-08-27T14:37:09;26.70;48.00
10644;DHT22;5370;50.132;8.626;2022-08-27T14:39:35;26.70;48.20
10644;DHT22;5370;50.132;8.626;2022-08-27T14:42:01;26.70;48.10
10644;DHT22;5370;50.132;8.626;2022-08-27T14:44:26;26.70;48.20
10644;DHT22;5370;50.132;8.626;2022-08-27T14:46:52;26.70;48.20
10644;DHT22;5370;50.132;8.626;2022-08-27T14:49:25;26.70;48.20
10644;DHT22;5370;50.132;8.626;2022-08-27T14:51:52;26.70;48.30
10644;DHT22;5370;50.132;8.626;2022-08-27T14:54:18;26.70;48.20
10644;DHT22;5370;50.132;8.626;2022-08-27T14:56:43;26.70;48.20
10644;DHT22;5370;50.132;8.626;2022-08-27T14:59:09;26.60;48.20
10644;DHT22;5370;50.132;8.626;2022-08-27T15:01:34;26.60;48.20
10644;DHT22;5370;50.132;8.626;2022-08-27T15:04:03;26.60;48.40
10644;DHT22;5370;50.132;8.626;2022-08-27T15:06:29;26.50;48.70
10644;DHT22;5370;50.132;8.626;2022-08-27T15:08:55;26.50;48.80
10644;DHT22;5370;50.132;8.626;2022-08-27T15:11:23;26.40;48.90
10644;DHT22;5370;50.132;8.626;2022-08-27T15:13:51;26.40;49.00
10644;DHT22;5370;50.132;8.626;2022-08-27T15:16:36;26.40;49.00
10644;DHT22;5370;50.132;8.626;2022-08-27T15:19:06;26.40;48.90
10644;DHT22;5370;50.132;8.626;2022-08-27T15:21:33;26.30;48.80
10644;DHT22;5370;50.132;8.626;2022-08-27T15:24:11;26.40;48.90
10644;DHT22;5370;50.132;8.626;2022-08-27T15:26:37;26.40;49.00
10644;DHT22;5370;50.132;8.626;2022-08-27T15:29:03;26.50;49.10
10644;DHT22;5370;50.132;8.626;2022-08-27T15:31:28;26.60;49.10
10644;DHT22;5370;50.132;8.626;2022-08-27T15:33:54;26.60;49.00
10644;DHT22;5370;50.132;8.626;2022-08-27T15:36:20;26.60;48.60
10644;DHT22;5370;50.132;8.626;2022-08-27T15:38:45;26.70;48.50
10644;DHT22;5370;50.132;8.626;2022-08-27T15:41:11;26.70;48.60
10644;DHT22;5370;50.132;8.626;2022-08-27T15:43:37;26.60;48.60
10644;DHT22;5370;50.132;8.626;2022-08-27T15:46:03;26.60;48.80
10644;DHT22;5370;50.132;8.626;2022-08-27T15:48:29;26.60;48.80
10644;DHT22;5370;50.132;8.626;2022-08-27T15:51:05;26.60;49.30
10644;DHT22;5370;50.132;8.626;2022-08-27T15:53:32;26.60;48.70
10644;DHT22;5370;50.132;8.626;2022-08-27T15:55:58;26.60;49.00
10644;DHT22;5370;50.132;8.626;2022-08-27T15:58:24;26.60;49.10
10644;DHT22;5370;50.132;8.626;2022-08-27T16:00:51;26.40;49.10
10644;DHT22;5370;50.132;8.626;2022-08-27T16:03:17;26.30;49.20
10644;DHT22;5370;50.132;8.626;2022-08-27T16:05:44;26.30;49.30
10644;DHT22;5370;50.132;8.626;2022-08-27T16:08:11;26.20;49.60
10644;DHT22;5370;50.132;8.626;2022-08-27T16:10:36;26.10;49.60
10644;DHT22;5370;50.132;8.626;2022-08-27T16:13:03;26.00;49.80
10644;DHT22;5370;50.132;8.626;2022-08-27T16:15:30;26.00;49.80
10644;DHT22;5370;50.132;8.626;2022-08-27T16:17:58;25.90;49.80
10644;DHT22;5370;50.132;8.626;2022-08-27T16:20:25;25.90;49.90
10644;DHT22;5370;50.132;8.626;2022-08-27T16:22:52;25.90;50.00
10644;DHT22;5370;50.132;8.626;2022-08-27T16:25:18;25.80;50.10
10644;DHT22;5370;50.132;8.626;2022-08-27T16:27:49;25.70;50.20
10644;DHT22;5370;50.132;8.626;2022-08-27T16:30:15;25.70;50.40
10644;DHT22;5370;50.132;8.626;2022-08-27T16:32:45;25.60;50.50
10644;DHT22;5370;50.132;8.626;2022-08-27T16:35:12;25.60;50.60
10644;DHT22;5370;50.132;8.626;2022-08-27T16:37:40;25.50;50.60
10644;DHT22;5370;50.132;8.626;2022-08-27T16:40:06;25.50;50.80
10644;DHT22;5370;50.132;8.626;2022-08-27T16:42:31;25.40;50.90
10644;DHT22;5370;50.132;8.626;2022-08-27T16:44:58;25.30;50.90
10644;DHT22;5370;50.132;8.626;2022-08-27T16:47:24;25.30;51.10
10644;DHT22;5370;50.132;8.626;2022-08-27T16:49:49;25.30;51.10
10644;DHT22;5370;50.132;8.626;2022-08-27T16:52:33;25.30;51.20
10644;DHT22;5370;50.132;8.626;2022-08-27T16:55:00;25.30;51.40
10644;DHT22;5370;50.132;8.626;2022-08-27T16:57:26;25.20;51.50
10644;DHT22;5370;50.132;8.626;2022-08-27T16:59:51;25.10;51.50
10644;DHT22;5370;50.132;8.626;2022-08-27T17:02:28;25.10;51.50
10644;DHT22;5370;50.132;8.626;2022-08-27T17:04:54;25.10;51.60
10644;DHT22;5370;50.132;8.626;2022-08-27T17:07:19;25.00;51.60
10644;DHT22;5370;50.132;8.626;2022-08-27T17:09:51;25.00;51.70
10644;DHT22;5370;50.132;8.626;2022-08-27T17:12:19;25.00;51.70
10644;DHT22;5370;50.132;8.626;2022-08-27T17:14:47;25.00;51.90
10644;DHT22;5370;50.132;8.626;2022-08-27T17:17:14;24.90;51.80
10644;DHT22;5370;50.132;8.626;2022-08-27T17:19:40;24.90;51.90
10644;DHT22;5370;50.132;8.626;2022-08-27T17:22:06;24.90;52.10
10644;DHT22;5370;50.132;8.626;2022-08-27T17:24:34;24.90;52.20
10644;DHT22;5370;50.132;8.626;2022-08-27T17:27:00;24.90;52.30
10644;DHT22;5370;50.132;8.626;2022-08-27T17:29:26;24.90;52.40